Flight Track Log - Related Links

Times and Time Zones

All times are in EST time to prevent confusion due to time zone crossing. See the CCA1294 flight status page for this flight to view local times or setup timezone preferences in your user account.

Time Position Orientation Groundspeed Altitude Reporting Facility
EST Latitude Longitude Course Direction KTS MPH feet Rate Location/Type
Sat 06:13:00 AM 43.9063 87.9610 90° East  Level Estimated
Sat 06:14:00 AM 43.9056 88.1233 90° East  Level Estimated
Sat 06:15:00 AM 43.9047 88.2855 90° East  Level Estimated
Sat 06:16:00 AM 43.9035 88.4477 91° East  Level Estimated
Sat 06:17:00 AM 43.9021 88.6100 91° East  Level Estimated
Sat 06:18:00 AM 43.9005 88.7722 91° East  Level Estimated
Sat 06:19:00 AM 43.8986 88.9344 91° East  Level Estimated
Sat 06:20:00 AM 43.8965 89.0966 91° East  Level Estimated
Sat 06:21:00 AM 43.8942 89.2588 91° East  Level Estimated
Sat 06:22:00 AM 43.8917 89.4210 91° East  Level Estimated
Sat 06:23:00 AM 43.8889 89.5831 91° East  Level Estimated
Sat 06:24:00 AM 43.8859 89.7453 91° East  Level Estimated
Sat 06:25:00 AM 43.8826 89.9074 92° East  Level Estimated
Sat 06:26:00 AM 43.8792 90.0695 92° East  Level Estimated
Sat 06:27:00 AM 43.8755 90.2316 92° East  Level Estimated
Sat 06:28:00 AM 43.8715 90.3937 92° East  Level Estimated
Sat 06:29:00 AM 43.8674 90.5557 92° East  Level Estimated
Sat 06:30:00 AM 43.8630 90.7178 92° East  Level Estimated
Sat 06:31:00 AM 43.8584 90.8798 92° East  Level Estimated
Sat 06:32:00 AM 43.8535 91.0417 92° East  Level Estimated
Sat 06:33:00 AM 43.8485 91.2037 92° East  Level Estimated
Sat 06:34:00 AM 43.8432 91.3656 93° East  Level Estimated
Sat 06:35:00 AM 43.8376 91.5275 93° East  Level Estimated
Sat 06:36:00 AM 43.8319 91.6893 93° East  Level Estimated
Sat 06:37:00 AM 43.8259 91.8512 93° East  Level Estimated
Sat 06:38:00 AM 43.8197 92.0130 93° East  Level Estimated
Sat 06:39:00 AM 43.8133 92.1747 93° East  Level Estimated
Sat 06:40:00 AM 43.8066 92.3365 93° East  Level Estimated
Sat 06:41:00 AM 43.7997 92.4982 93° East  Level Estimated
Sat 06:42:00 AM 43.7925 92.6598 93° East  Level Estimated
Sat 06:43:00 AM 43.7852 92.8214 94° East  Level Estimated
Sat 06:44:00 AM 43.7776 92.9830 94° East  Level Estimated
Sat 06:45:00 AM 43.7698 93.1445 94° East  Level Estimated
Sat 06:46:00 AM 43.7618 93.3060 94° East  Level Estimated
Sat 06:47:00 AM 43.7535 93.4675 94° East  Level Estimated
Sat 06:48:00 AM 43.7450 93.6289 94° East  Level Estimated
Sat 06:49:00 AM 43.7363 93.7902 94° East  Level Estimated
Sat 06:50:00 AM 43.7274 93.9515 94° East  Level Estimated
Sat 06:51:00 AM 43.7182 94.1128 94° East  Level Estimated
Sat 06:52:00 AM 43.7088 94.2740 95° East  Level Estimated
Sat 06:53:00 AM 43.6992 94.4351 95° East  Level Estimated
Sat 06:54:00 AM 43.6893 94.5962 95° East  Level Estimated
Sat 06:55:00 AM 43.6792 94.7573 95° East  Level Estimated
Sat 06:56:00 AM 43.6689 94.9183 95° East  Level Estimated
Sat 06:57:00 AM 43.6584 95.0792 95° East  Level Estimated
Sat 06:58:00 AM 43.6477 95.2401 95° East  Level Estimated
Sat 06:59:00 AM 43.6367 95.4009 95° East  Level Estimated
Sat 07:00:00 AM 43.6255 95.5617 95° East  Level Estimated
Sat 07:01:00 AM 43.6141 95.7224 96° East  Level Estimated
Sat 07:02:00 AM 43.6024 95.8830 96° East  Level Estimated
Sat 07:03:00 AM 43.5905 96.0436 96° East  Level Estimated
Sat 07:04:00 AM 43.5784 96.2041 96° East  Level Estimated
Sat 07:05:00 AM 43.5661 96.3645 96° East  Level Estimated
Sat 07:06:00 AM 43.5535 96.5249 96° East  Level Estimated
Sat 07:07:00 AM 43.5407 96.6852 96° East  Level Estimated
Sat 07:08:00 AM 43.5277 96.8455 96° East  Level Estimated
Sat 07:09:00 AM 43.5145 97.0057 96° East  Level Estimated
Sat 07:10:00 AM 43.5011 97.1658 97° East  Level Estimated
Sat 07:11:00 AM 43.4874 97.3258 97° East  Level Estimated
Sat 07:12:00 AM 43.4735 97.4858 97° East  Level Estimated
Sat 07:13:00 AM 43.4594 97.6457 97° East  Level Estimated
Sat 07:14:00 AM 43.4450 97.8055 97° East  Level Estimated
Sat 07:15:00 AM 43.4305 97.9652 97° East  Level Estimated
Sat 07:16:00 AM 43.4157 98.1249 97° East  Level Estimated
Sat 07:17:00 AM 43.4007 98.2844 97° East  Level Estimated
Sat 07:18:00 AM 43.3855 98.4439 97° East  Level Estimated
Sat 07:19:00 AM 43.3700 98.6034 98° East  Level Estimated
Sat 07:20:00 AM 43.3543 98.7627 98° East  Level Estimated
Sat 07:21:00 AM 43.3385 98.9220 98° East  Level Estimated
Sat 07:22:00 AM 43.3223 99.0811 98° East  Level Estimated
Sat 07:23:00 AM 43.3060 99.2402 98° East  Level Estimated
Sat 07:24:00 AM 43.2895 99.3992 98° East  Level Estimated
Sat 07:25:00 AM 43.2727 99.5581 98° East  Level Estimated
Sat 07:26:00 AM 43.2557 99.7170 98° East  Level Estimated
Sat 07:27:00 AM 43.2385 99.8757 98° East  Level Estimated
Sat 07:28:00 AM 43.2211 100.0343 99° East  Level Estimated
Sat 07:29:00 AM 43.2034 100.1929 99° East  Level Estimated
Sat 07:30:00 AM 43.1855 100.3514 99° East  Level Estimated
Sat 07:31:00 AM 43.1674 100.5097 99° East  Level Estimated
Sat 07:32:00 AM 43.1491 100.6680 99° East  Level Estimated
Sat 07:33:00 AM 43.1306 100.8262 99° East  Level Estimated
Sat 07:34:00 AM 43.1119 100.9843 99° East  Level Estimated
Sat 07:35:00 AM 43.0929 101.1423 99° East  Level Estimated
Sat 07:36:00 AM 43.0737 101.3001 99° East  Level Estimated
Sat 07:37:00 AM 43.0543 101.4579 99° East  Level Estimated
Sat 07:38:00 AM 43.0347 101.6156 100° East  Level Estimated
Sat 07:39:00 AM 43.0149 101.7732 100° East  Level Estimated
Sat 07:40:00 AM 42.9949 101.9307 100° East  Level Estimated
Sat 07:41:00 AM 42.9746 102.0881 100° East  Level Estimated
Sat 07:42:00 AM 42.9541 102.2454 100° East  Level Estimated
Sat 07:43:00 AM 42.9334 102.4025 100° East  Level Estimated
Sat 07:44:00 AM 42.9125 102.5596 100° East  Level Estimated
Sat 07:45:00 AM 42.8914 102.7165 100° East  Level Estimated
Sat 07:46:00 AM 42.8700 102.8734 100° East  Level Estimated
Sat 07:47:00 AM 42.8485 103.0301 101° East  Level Estimated
Sat 07:48:00 AM 42.8267 103.1868 101° East  Level Estimated
Sat 07:49:00 AM 42.8048 103.3433 101° East  Level Estimated
Sat 07:50:00 AM 42.7826 103.4997 101° East  Level Estimated
Sat 07:51:00 AM 42.7602 103.6560 101° East  Level Estimated
Sat 07:52:00 AM 42.7376 103.8122 101° East  Level Estimated
Sat 07:53:00 AM 42.7147 103.9682 101° East  Level Estimated
Sat 07:54:00 AM 42.6917 104.1242 101° East  Level Estimated
Sat 07:55:00 AM 42.6684 104.2800 101° East  Level Estimated
Sat 07:56:00 AM 42.6450 104.4358 102° East  Level Estimated
Sat 07:57:00 AM 42.6213 104.5913 102° East  Level Estimated
Sat 07:58:00 AM 42.5974 104.7468 102° East  Level Estimated
Sat 07:59:00 AM 42.5733 104.9022 102° East  Level Estimated
Sat 08:00:00 AM 42.5490 105.0574 102° East  Level Estimated
Sat 08:01:00 AM 42.5245 105.2125 102° East  Level Estimated
Sat 08:02:00 AM 42.4998 105.3676 102° East  Level Estimated
Sat 08:03:00 AM 42.4749 105.5224 102° East  Level Estimated
Sat 08:04:00 AM 42.4497 105.6772 102° East  Level Estimated
Sat 08:05:00 AM 42.4244 105.8318 102° East  Level Estimated
Sat 08:06:00 AM 42.3988 105.9863 103° East  Level Estimated
Sat 08:07:00 AM 42.3731 106.1407 103° East  Level Estimated
Sat 08:08:00 AM 42.3471 106.2949 103° East  Level Estimated
Sat 08:09:00 AM 42.3209 106.4491 103° East  Level Estimated
Sat 08:10:00 AM 42.2946 106.6031 103° East  Level Estimated
Sat 08:11:00 AM 42.2680 106.7569 103° East  Level Estimated
Sat 08:12:00 AM 42.2412 106.9106 103° East  Level Estimated
Sat 08:13:00 AM 42.2142 107.0642 103° East  Level Estimated
Sat 08:14:00 AM 42.1870 107.2177 103° East  Level Estimated
Sat 08:15:00 AM 42.1596 107.3710 104° East  Level Estimated
Sat 08:16:00 AM 42.1320 107.5242 104° East  Level Estimated
Sat 08:17:00 AM 42.1042 107.6773 104° East  Level Estimated
Sat 08:18:00 AM 42.0761 107.8303 104° East  Level Estimated
Sat 08:19:00 AM 42.0479 107.9831 104° East  Level Estimated
Sat 08:20:00 AM 42.0195 108.1357 104° East  Level Estimated
Sat 08:21:00 AM 41.9909 108.2883 104° East  Level Estimated
Sat 08:22:00 AM 41.9621 108.4406 104° East  Level Estimated
Sat 08:23:00 AM 41.9330 108.5929 104° East  Level Estimated
Sat 08:24:00 AM 41.9038 108.7450 104° East  Level Estimated
Sat 08:25:00 AM 41.8744 108.8970 105° East  Level Estimated
Sat 08:26:00 AM 41.8447 109.0488 105° East  Level Estimated
Sat 08:27:00 AM 41.8149 109.2005 105° East  Level Estimated
Sat 08:28:00 AM 41.7849 109.3520 105° East  Level Estimated
Sat 08:29:00 AM 41.7547 109.5034 105° East  Level Estimated
Sat 08:30:00 AM 41.7242 109.6547 105° East  Level Estimated
Sat 08:31:00 AM 41.6936 109.8058 105° East  Level Estimated
Sat 08:32:00 AM 41.6628 109.9568 105° East  Level Estimated
Sat 08:33:00 AM 41.6318 110.1076 105° East  Level Estimated
Sat 08:34:00 AM 41.6006 110.2583 105° East  Level Estimated
Sat 08:35:00 AM 41.5692 110.4089 106° East  Level Estimated
Sat 08:36:00 AM 41.5376 110.5593 106° East  Level Estimated
Sat 08:37:00 AM 41.5057 110.7095 106° East  Level Estimated
Sat 08:38:00 AM 41.4738 110.8596 106° East  Level Estimated
Sat 08:39:00 AM 41.4416 111.0096 106° East  Level Estimated
Sat 08:40:00 AM 41.4092 111.1593 106° East  Level Estimated
Sat 08:41:00 AM 41.3766 111.3090 106° East  Level Estimated
Sat 08:42:00 AM 41.3438 111.4585 106° East  Level Estimated
Sat 08:43:00 AM 41.3108 111.6078 106° East  Level Estimated
Sat 08:44:00 AM 41.2777 111.7570 106° East  Level Estimated
Sat 08:45:00 AM 41.2443 111.9061 107° East  Level Estimated
Sat 08:46:00 AM 41.2108 112.0550 107° East  Level Estimated
Sat 08:47:00 AM 41.1770 112.2037 107° East  Level Estimated
Sat 08:48:00 AM 41.1431 112.3523 107° East  Level Estimated
Sat 08:49:00 AM 41.1090 112.5007 107° East  Level Estimated
Sat 08:50:00 AM 41.0747 112.6490 107° East  Level Estimated
Sat 08:51:00 AM 41.0402 112.7971 107° East  Level Estimated
Sat 08:52:00 AM 41.0055 112.9451 107° East  Level Estimated
Sat 08:53:00 AM 40.9706 113.0929 107° East  Level Estimated
Sat 08:54:00 AM 40.9355 113.2406 107° East  Level Estimated
Sat 08:55:00 AM 40.9003 113.3881 108° East  Level Estimated
Sat 08:56:00 AM 40.8648 113.5354 108° East  Level Estimated
Sat 08:57:00 AM 40.8292 113.6826 108° East  Level Estimated
Sat 08:58:00 AM 40.7934 113.8296 108° East  Level Estimated
Sat 08:59:00 AM 40.7574 113.9765 108° East  Level Estimated
Sat 09:00:00 AM 40.7212 114.1232 108° East  Level Estimated
Sat 09:01:00 AM 40.6848 114.2697 108° East  Level Estimated
Sat 09:02:00 AM 40.6483 114.4161 108° East  Level Estimated
Sat 09:03:00 AM 40.6115 114.5623 108° East  Level Estimated
Sat 09:04:00 AM 40.5746 114.7084 108° East  Level Estimated
Sat 09:05:00 AM 40.5375 114.8543 108° East  Level Estimated
Sat 09:06:00 AM 40.5002 115.0000 109° East  Level Estimated
Sat 09:07:00 AM 40.4627 115.1456 109° East  Level Estimated
Sat 09:08:00 AM 40.4251 115.2910 109° East  Level Estimated
Sat 09:09:00 AM 40.3872 115.4362 109° East  Level Estimated
Sat 09:10:00 AM 40.3492 115.5813 109° East  Level Estimated
Sat 09:11:00 AM 40.3110 115.7263 109° East  Level Estimated
Sat 09:12:00 AM 40.2726 115.8710 109° East  Level Estimated
Sat 09:13:00 AM 40.2340 116.0156 109° East  Level Estimated
Sat 09:14:00 AM 40.1953 116.1600 109° East  Level Estimated
Sat 09:15:00 AM 40.1564 116.3043 109° East  Level Estimated
Sat 09:16:00 AM 40.1173 116.4484 109° East  Level Estimated
Sat 09:17:00 AM 40.0801 116.5846 110° East  Level Estimated
Sat 09:18:00 AM 40.0801 116.5846 288° West  Level Estimated
Sat 09:19:00 AM 40.0801 116.5846 288° West  Level Estimated
Sat 09:20:00 AM 40.0801 116.5846 288° West  Level Estimated
Sat 09:21:00 AM 40.0801 116.5846 288° West  Level Estimated
Sat 09:22:00 AM 40.0801 116.5846 288° West  Level Estimated
Sat 09:23:00 AM 40.0801 116.5846 288° West  Level Estimated
Sat 09:24:00 AM 40.0801 116.5846 288° West  Level Estimated
Sat 09:25:00 AM 40.0801 116.5846 288° West  Level Estimated
Sat 09:26:00 AM 40.0801 116.5846 288° West  Level Estimated
Sat 09:27:00 AM 40.0801 116.5846 288° West  Level Estimated
Sat 09:28:00 AM 40.0801 116.5846 288° West  Level Estimated
Sat 09:29:00 AM 40.0801 116.5846 288° West  Level Estimated
Sat 09:30:00 AM 40.0801 116.5846 288° West  Level Estimated
Sat 09:31:00 AM 40.0801 116.5846 288° West  Level Estimated

Login

Don't have an account? Register now (free) for customized features, flight alerts, and more!